This is the latest recevied weather packets stored in our database for station/object KY4OP-13. If no packets are shown the sender has not sent any weather packets the latest 10 day(s).
| Time | Temp. | Humidity | Pressure | Rain* | Wind** | Luminosity | Snow |
|---|---|---|---|---|---|---|---|
| 1777668555 | 18.89° C | 40% | 1012.5 hPa | 0 mm | - | - | - |
| 1777668251 | 20° C | 38% | 1012.6 hPa | 0 mm | - | - | - |
| 1777667947 | 20° C | 39% | 1012.5 hPa | 0 mm | - | - | - |
| 1777667644 | 20° C | 37% | 1012.5 hPa | 0 mm | - | - | - |
| 1777667342 | 20° C | 40% | 1012.5 hPa | 0 mm | - | - | - |
| 1777667039 | 19.44° C | 39% | 1012.7 hPa | 0 mm | - | - | - |
| 1777666735 | 19.44° C | 39% | 1012.9 hPa | 0 mm | - | - | - |
| 1777666432 | 20° C | 39% | 1012.7 hPa | 0 mm | - | - | - |
| 1777666129 | 19.44° C | 36% | 1013 hPa | 0 mm | - | - | - |
| 1777665826 | 19.44° C | 41% | 1013 hPa | 0 mm | - | - | - |
| 1777665524 | 19.44° C | 39% | 1013.1 hPa | 0 mm | - | - | - |
| 1777665219 | 20° C | 40% | 1013.1 hPa | 0 mm | - | - | - |
| 1777664915 | 20° C | 39% | 1013.2 hPa | 0 mm | - | - | - |
| 1777664611 | 20.56° C | 37% | 1013.3 hPa | 0 mm | - | - | - |
| 1777664308 | 19.44° C | 41% | 1013 hPa | 0 mm | - | - | - |
| 1777664007 | 20.56° C | 39% | 1013.4 hPa | 0 mm | - | - | - |
| 1777663704 | 19.44° C | 39% | 1013.6 hPa | 0 mm | - | - | - |
| 1777663401 | 19.44° C | 39% | 1013.7 hPa | 0 mm | - | - | - |
| 1777663097 | 20° C | 35% | 1013.8 hPa | 0 mm | - | - | - |
| 1777662794 | 19.44° C | 39% | 1014 hPa | 0 mm | - | - | - |
| 1777662491 | 20° C | 36% | 1014 hPa | 0 mm | - | - | - |
| 1777662187 | 18.89° C | 41% | 1014.2 hPa | 0 mm | - | - | - |
| 1777661877 | 19.44° C | 39% | 1014.4 hPa | 0 mm | - | - | - |
| 1777661573 | 18.33° C | 42% | 1014.2 hPa | 0 mm | - | - | - |
| 1777661269 | 19.44° C | 43% | 1014.6 hPa | 0 mm | - | - | - |
* Rain latest hour (hover to see other rain measurements)
** Current wind speed in m/s (hover to see current wind gust speed)